createdAt,value
2023-05-05T00:02:07.585Z,100717.81
2023-05-05T00:05:20.665Z,100711.56
2023-05-05T00:08:33.321Z,100708.94
2023-05-05T00:11:45.953Z,100712.38
2023-05-05T00:14:58.299Z,100714.56
2023-05-05T00:18:11.216Z,100707.87
2023-05-05T00:21:23.546Z,100708.31
2023-05-05T00:24:36.207Z,100714.31
2023-05-05T00:27:48.537Z,100705.47
2023-05-05T00:31:01.704Z,100712.81
2023-05-05T00:34:14.169Z,100711.50
2023-05-05T00:37:27.158Z,100709.69
2023-05-05T00:40:39.619Z,100696.62
2023-05-05T00:43:52.674Z,100705.53
2023-05-05T00:47:05.381Z,100704.19
2023-05-05T00:50:23.958Z,100700.88
2023-05-05T00:53:36.401Z,100694.78
2023-05-05T00:56:50.859Z,100702.59
2023-05-05T01:00:03.683Z,100696.19
2023-05-05T01:03:17.027Z,100691.28
2023-05-05T01:06:35.273Z,100688.91
2023-05-05T01:10:18.908Z,100696.41
2023-05-05T01:13:43.284Z,100688.78
2023-05-05T01:17:00.170Z,100693.94
2023-05-05T01:20:23.932Z,100690.81
2023-05-05T01:23:58.370Z,100685.22
2023-05-05T01:27:35.348Z,100687.84
2023-05-05T01:31:23.606Z,100680.25
2023-05-05T01:34:57.635Z,100673.19
2023-05-05T01:38:38.118Z,100675.03
2023-05-05T01:41:51.253Z,100675.56
2023-05-05T01:45:04.706Z,100673.88
2023-05-05T01:48:17.570Z,100672.44
2023-05-05T01:51:30.243Z,100676.53
2023-05-05T01:54:43.321Z,100674.06
2023-05-05T01:57:56.096Z,100681.28
2023-05-05T02:01:08.949Z,100678.88
2023-05-05T02:04:22.905Z,100673.91
2023-05-05T02:07:35.298Z,100673.03
2023-05-05T02:10:47.953Z,100674.19
2023-05-05T02:14:00.366Z,100680.16
2023-05-05T02:17:13.288Z,100675.28
2023-05-05T02:20:25.858Z,100675.53
2023-05-05T02:23:39.480Z,100688.91
2023-05-05T02:26:52.294Z,100686.31
2023-05-05T02:30:07.563Z,100669.75
2023-05-05T02:33:20.220Z,100667.44
2023-05-05T02:36:34.041Z,100672.47
2023-05-05T02:39:51.587Z,100678.72
2023-05-05T02:43:06.573Z,100677.69
2023-05-05T02:46:19.421Z,100674.25
2023-05-05T02:49:32.547Z,100677.13
2023-05-05T02:52:45.248Z,100682.06
2023-05-05T02:56:22.437Z,100674.97
2023-05-05T03:00:02.208Z,100677.56
2023-05-05T03:04:03.157Z,100686.62
2023-05-05T03:07:25.230Z,100677.84
2023-05-05T03:10:48.046Z,100681.22
2023-05-05T03:14:13.000Z,100684.19
2023-05-05T03:17:26.187Z,100687.31
2023-05-05T03:20:41.732Z,100687.03
2023-05-05T03:23:54.584Z,100683.25
2023-05-05T03:27:07.784Z,100682.16
2023-05-05T03:30:20.960Z,100684.94
2023-05-05T03:33:33.985Z,100682.72
2023-05-05T03:36:46.978Z,100691.88
2023-05-05T03:40:00.531Z,100689.28
2023-05-05T03:43:13.767Z,100698.41
2023-05-05T03:46:26.202Z,100703.81
2023-05-05T03:49:39.319Z,100702.25
2023-05-05T03:52:51.806Z,100703.47
2023-05-05T03:56:04.703Z,100701.47
2023-05-05T03:59:17.396Z,100708.59
2023-05-05T04:02:30.447Z,100702.69
2023-05-05T04:05:43.441Z,100716.25
2023-05-05T04:08:55.933Z,100711.34
2023-05-05T04:12:08.760Z,100718.13
2023-05-05T04:15:21.237Z,100707.44
2023-05-05T04:18:33.966Z,100709.53
2023-05-05T04:21:46.423Z,100705.59
2023-05-05T04:24:59.308Z,100713.03
2023-05-05T04:28:11.999Z,100711.31
2023-05-05T04:31:24.809Z,100715.56
2023-05-05T04:34:37.317Z,100715.44
2023-05-05T04:37:50.328Z,100722.63
2023-05-05T04:41:08.840Z,100720.00
2023-05-05T04:44:22.125Z,100713.94
2023-05-05T04:47:41.525Z,100715.31
2023-05-05T04:50:54.361Z,100718.53
2023-05-05T04:54:07.472Z,100720.81
2023-05-05T04:57:20.324Z,100723.91
2023-05-05T05:00:32.872Z,100735.09
2023-05-05T05:03:46.011Z,100734.22
2023-05-05T05:06:59.369Z,100734.06
2023-05-05T05:10:12.362Z,100729.72
2023-05-05T05:13:24.846Z,100733.28
2023-05-05T05:16:37.759Z,100732.81
2023-05-05T05:19:51.135Z,100736.78
2023-05-05T05:23:04.575Z,100745.34
2023-05-05T05:26:17.696Z,100736.22
2023-05-05T05:29:30.912Z,100738.31
2023-05-05T05:32:43.727Z,100746.38
2023-05-05T05:35:56.478Z,100746.47
2023-05-05T05:39:09.073Z,100750.75
2023-05-05T05:42:21.824Z,100755.66
2023-05-05T05:45:34.686Z,100754.50
2023-05-05T05:48:47.788Z,100760.19
2023-05-05T05:52:00.218Z,100757.38
2023-05-05T05:55:13.087Z,100759.81
2023-05-05T05:58:26.021Z,100753.31
2023-05-05T06:01:40.456Z,100761.81
2023-05-05T06:04:53.451Z,100756.75
2023-05-05T06:08:06.739Z,100757.75
2023-05-05T06:11:20.573Z,100758.91
2023-05-05T06:14:33.050Z,100769.03
2023-05-05T06:17:45.911Z,100771.81
2023-05-05T06:20:58.304Z,100766.66
2023-05-05T06:24:12.073Z,100770.81
2023-05-05T06:27:24.564Z,100768.28
2023-05-05T06:30:37.203Z,100770.03
2023-05-05T06:33:49.542Z,100759.37
2023-05-05T06:37:02.291Z,100762.50
2023-05-05T06:40:14.830Z,100761.59
2023-05-05T06:43:28.506Z,100754.78
2023-05-05T06:46:44.180Z,100761.91
2023-05-05T06:49:57.646Z,100758.66
2023-05-05T06:53:10.996Z,100755.37
2023-05-05T06:56:24.027Z,100766.06
2023-05-05T06:59:36.504Z,100757.03
2023-05-05T07:02:49.292Z,100760.69
2023-05-05T07:06:01.688Z,100766.56
2023-05-05T07:09:16.940Z,100764.34
2023-05-05T07:12:30.698Z,100769.09
2023-05-05T07:15:46.806Z,100756.31
2023-05-05T07:19:00.881Z,100757.62
2023-05-05T07:22:13.605Z,100759.97
2023-05-05T07:25:26.812Z,100754.84
2023-05-05T07:28:39.490Z,100751.91
2023-05-05T07:31:51.956Z,100750.31
2023-05-05T07:35:05.978Z,100740.22
2023-05-05T07:38:18.404Z,100748.00
2023-05-05T07:41:31.130Z,100748.81
2023-05-05T07:44:43.588Z,100747.91
2023-05-05T07:47:56.504Z,100748.03
2023-05-05T07:51:09.355Z,100750.22
2023-05-05T07:54:22.129Z,100753.50
2023-05-05T07:57:34.766Z,100752.41
2023-05-05T08:00:47.977Z,100756.34
2023-05-05T08:04:00.777Z,100757.12
2023-05-05T08:07:13.147Z,100757.69
2023-05-05T08:10:25.799Z,100747.88
2023-05-05T08:13:39.223Z,100750.25
2023-05-05T08:16:51.900Z,100748.31
2023-05-05T08:20:04.565Z,100746.94
2023-05-05T08:23:17.254Z,100743.03
2023-05-05T08:26:29.677Z,100745.09
2023-05-05T08:29:42.374Z,100745.34
2023-05-05T08:32:55.196Z,100751.59
2023-05-05T08:36:08.945Z,100745.53
2023-05-05T08:39:21.331Z,100745.72
2023-05-05T08:42:38.439Z,100740.31
2023-05-05T08:45:54.293Z,100741.66
2023-05-05T08:49:07.259Z,100751.81
2023-05-05T08:52:24.301Z,100742.91
2023-05-05T08:55:41.893Z,100748.34
2023-05-05T08:58:54.549Z,100738.84
2023-05-05T09:02:07.387Z,100734.59
2023-05-05T09:05:19.998Z,100731.78
2023-05-05T09:08:33.481Z,100727.28
2023-05-05T09:11:45.818Z,100728.28
2023-05-05T09:15:05.008Z,100725.28
2023-05-05T09:18:17.417Z,100724.28
2023-05-05T09:21:30.181Z,100721.47
2023-05-05T09:24:54.623Z,100711.81
2023-05-05T09:28:14.724Z,100713.41
2023-05-05T09:31:27.529Z,100714.09
2023-05-05T09:34:40.211Z,100717.09
2023-05-05T09:37:52.584Z,100710.06
2023-05-05T09:41:06.545Z,100708.22
2023-05-05T09:44:32.480Z,100707.41
2023-05-05T09:47:48.435Z,100694.69
2023-05-05T09:51:00.827Z,100689.97
2023-05-05T09:54:29.673Z,100686.47
2023-05-05T09:57:42.128Z,100691.22
2023-05-05T10:09:09.262Z,100687.09
2023-05-05T10:12:23.868Z,100679.88
2023-05-05T10:15:36.538Z,100675.50
2023-05-05T10:18:50.643Z,100668.81
2023-05-05T10:22:03.533Z,100669.53
2023-05-05T10:25:16.260Z,100661.97
2023-05-05T10:28:42.218Z,100660.37
2023-05-05T10:31:54.974Z,100658.06
2023-05-05T10:35:11.051Z,100651.97
2023-05-05T10:38:24.794Z,100660.50
2023-05-05T10:41:39.060Z,100654.28
2023-05-05T10:44:53.851Z,100649.84
2023-05-05T10:48:07.399Z,100647.91
2023-05-05T10:51:47.227Z,100647.72
2023-05-05T10:55:16.549Z,100643.56
2023-05-05T10:58:55.435Z,100640.25
2023-05-05T11:02:21.414Z,100632.94
2023-05-05T11:05:34.037Z,100626.69
2023-05-05T11:08:46.532Z,100633.91
2023-05-05T11:12:06.284Z,100624.25
2023-05-05T11:15:27.895Z,100617.97
2023-05-05T11:18:43.382Z,100607.56
2023-05-05T11:22:02.001Z,100606.53
2023-05-05T11:25:37.068Z,100606.41
2023-05-05T11:29:00.794Z,100606.72
2023-05-05T11:32:16.528Z,100609.25
2023-05-05T11:35:58.263Z,100603.03
2023-05-05T11:39:41.135Z,100600.69
2023-05-05T11:43:04.752Z,100598.06
2023-05-05T11:46:17.448Z,100589.47
2023-05-05T11:49:34.271Z,100580.63
2023-05-05T11:52:47.375Z,100565.63
2023-05-05T11:56:09.258Z,100572.19
2023-05-05T11:59:23.014Z,100573.84
2023-05-05T12:02:36.112Z,100569.91
2023-05-05T12:05:48.864Z,100568.09
2023-05-05T12:09:01.358Z,100566.88
2023-05-05T12:12:14.565Z,100566.28
2023-05-05T12:15:31.220Z,100565.22
2023-05-05T12:18:43.952Z,100566.41
2023-05-05T12:21:56.824Z,100559.25
2023-05-05T12:25:09.880Z,100554.53
2023-05-05T12:28:22.280Z,100551.16
2023-05-05T12:31:38.623Z,100544.69
2023-05-05T12:34:54.289Z,100538.69
2023-05-05T12:38:07.022Z,100534.00
2023-05-05T12:41:20.098Z,100536.34
2023-05-05T12:44:38.869Z,100524.81
2023-05-05T12:47:51.540Z,100517.84
2023-05-05T12:51:20.861Z,100526.38
2023-05-05T12:54:33.371Z,100514.78
2023-05-05T12:58:07.169Z,100514.19
2023-05-05T13:01:19.590Z,100515.31
2023-05-05T13:04:32.732Z,100504.25
2023-05-05T13:07:52.686Z,100503.47
2023-05-05T13:11:05.378Z,100495.25
2023-05-05T13:14:17.737Z,100486.16
2023-05-05T13:17:31.103Z,100485.75
2023-05-05T13:20:44.869Z,100490.28
2023-05-05T13:24:08.213Z,100474.97
2023-05-05T13:27:24.655Z,100485.88
2023-05-05T13:30:37.297Z,100476.78
2023-05-05T13:33:49.665Z,100476.94
2023-05-05T13:37:02.285Z,100467.81
2023-05-05T13:40:14.600Z,100475.16
2023-05-05T13:43:27.216Z,100471.41
2023-05-05T13:46:40.210Z,100460.97
2023-05-05T13:49:52.953Z,100459.31
2023-05-05T13:53:05.316Z,100456.25
2023-05-05T13:56:19.161Z,100451.59
2023-05-05T13:59:31.587Z,100456.53
2023-05-05T14:02:44.301Z,100450.94
2023-05-05T14:05:57.030Z,100447.81
2023-05-05T14:09:09.369Z,100441.09
2023-05-05T14:12:23.730Z,100437.75
2023-05-05T14:15:36.854Z,100443.75
2023-05-05T14:18:51.045Z,100438.50
2023-05-05T14:22:03.471Z,100442.84
2023-05-05T14:25:16.228Z,100441.97
2023-05-05T14:28:28.621Z,100439.72
2023-05-05T14:31:41.294Z,100432.44
2023-05-05T14:34:55.371Z,100431.16
2023-05-05T14:38:08.037Z,100434.16
2023-05-05T14:41:20.519Z,100430.75
2023-05-05T14:44:33.129Z,100428.94
2023-05-05T14:47:45.486Z,100429.84
2023-05-05T14:50:58.144Z,100430.31
2023-05-05T14:54:24.164Z,100423.59
2023-05-05T14:57:40.468Z,100430.72
2023-05-05T15:00:52.921Z,100426.78
2023-05-05T15:04:05.901Z,100427.09
2023-05-05T15:07:18.244Z,100428.56
2023-05-05T15:10:30.918Z,100421.03
2023-05-05T15:13:43.263Z,100433.69
2023-05-05T15:16:55.876Z,100421.03
2023-05-05T15:20:08.632Z,100406.94
2023-05-05T15:23:21.552Z,100427.63
2023-05-05T15:26:33.994Z,100426.16
2023-05-05T15:29:46.758Z,100429.53
2023-05-05T15:32:59.105Z,100417.75
2023-05-05T15:36:12.057Z,100420.59
2023-05-05T15:39:24.443Z,100420.53
2023-05-05T15:42:37.110Z,100409.13
2023-05-05T15:45:49.505Z,100415.63
2023-05-05T15:49:02.173Z,100414.28
2023-05-05T15:52:14.560Z,100410.31
2023-05-05T15:55:27.531Z,100407.34
2023-05-05T15:58:43.823Z,100411.03
2023-05-05T16:02:06.200Z,100410.09
2023-05-05T16:05:26.933Z,100400.22
2023-05-05T16:08:42.297Z,100397.84
2023-05-05T16:11:55.302Z,100401.22
2023-05-05T16:15:08.484Z,100391.62
2023-05-05T16:18:21.334Z,100390.13
2023-05-05T16:21:33.665Z,100388.88
2023-05-05T16:24:46.975Z,100393.75
2023-05-05T16:28:00.275Z,100394.03
2023-05-05T16:31:13.560Z,100394.47
2023-05-05T16:34:26.072Z,100389.87
2023-05-05T16:37:38.700Z,100382.78
2023-05-05T16:40:51.032Z,100392.97
2023-05-05T16:44:03.748Z,100387.53
2023-05-05T16:47:16.860Z,100387.41
2023-05-05T16:50:29.561Z,100384.88
2023-05-05T16:53:41.988Z,100382.53
2023-05-05T16:56:55.025Z,100395.72
2023-05-05T17:00:07.888Z,100386.03
2023-05-05T17:03:20.630Z,100387.97
2023-05-05T17:06:33.127Z,100386.47
2023-05-05T17:09:45.812Z,100383.31
2023-05-05T17:12:58.204Z,100393.66
2023-05-05T17:16:10.923Z,100384.78
2023-05-05T17:19:23.308Z,100387.62
2023-05-05T17:22:36.342Z,100392.75
2023-05-05T17:25:48.728Z,100387.06
2023-05-05T17:29:01.446Z,100393.28
2023-05-05T17:32:13.793Z,100385.59
2023-05-05T17:35:26.792Z,100382.22
2023-05-05T17:38:39.171Z,100383.44
2023-05-05T17:41:51.761Z,100383.56
2023-05-05T17:45:04.476Z,100390.97
2023-05-05T17:48:17.104Z,100388.44
2023-05-05T17:51:29.485Z,100385.31
2023-05-05T17:54:46.139Z,100388.78
2023-05-05T17:57:59.112Z,100393.22
2023-05-05T18:01:20.556Z,100394.38
2023-05-05T18:04:33.157Z,100392.53
2023-05-05T18:07:45.659Z,100397.28
2023-05-05T18:10:58.334Z,100396.41
2023-05-05T18:14:13.588Z,100398.50
2023-05-05T18:17:26.282Z,100394.06
2023-05-05T18:20:38.635Z,100402.47
2023-05-05T18:23:51.329Z,100399.03
2023-05-05T18:27:05.389Z,100405.63
2023-05-05T18:30:18.036Z,100406.44
2023-05-05T18:33:30.459Z,100404.56
2023-05-05T18:36:43.187Z,100414.19
2023-05-05T18:39:55.717Z,100407.88
2023-05-05T18:43:08.345Z,100405.91
2023-05-05T18:46:20.832Z,100418.84
2023-05-05T18:49:33.693Z,100414.25
2023-05-05T18:52:46.000Z,100415.59
2023-05-05T18:55:59.128Z,100422.28
2023-05-05T18:59:11.813Z,100425.81
2023-05-05T19:02:24.456Z,100427.25
2023-05-05T19:05:36.858Z,100428.19
2023-05-05T19:08:49.565Z,100425.31
2023-05-05T19:12:02.975Z,100429.16
2023-05-05T19:15:15.719Z,100430.75
2023-05-05T19:18:28.025Z,100437.19
2023-05-05T19:21:40.766Z,100432.06
2023-05-05T19:24:53.136Z,100440.13
2023-05-05T19:28:06.063Z,100430.97
2023-05-05T19:31:18.463Z,100424.75
2023-05-05T19:34:31.599Z,100431.25
2023-05-05T19:37:44.008Z,100435.50
2023-05-05T19:40:56.630Z,100436.16
2023-05-05T19:44:09.032Z,100433.94
2023-05-05T19:47:22.483Z,100425.31
2023-05-05T19:50:34.898Z,100428.34
2023-05-05T19:53:47.554Z,100425.97
2023-05-05T19:57:00.799Z,100422.09
2023-05-05T20:00:13.831Z,100422.75
2023-05-05T20:03:26.586Z,100424.09
2023-05-05T20:06:38.950Z,100423.81
2023-05-05T20:09:51.583Z,100419.75
2023-05-05T20:13:04.023Z,100419.28
2023-05-05T20:16:16.924Z,100422.16
2023-05-05T20:19:29.276Z,100411.84
2023-05-05T20:22:41.908Z,100412.34
2023-05-05T20:25:54.589Z,100416.53
2023-05-05T20:29:07.310Z,100412.12
2023-05-05T20:32:20.632Z,100419.44
2023-05-05T20:35:33.291Z,100415.78
2023-05-05T20:38:45.660Z,100417.66
2023-05-05T20:41:58.255Z,100420.34
2023-05-05T20:45:11.306Z,100417.19
2023-05-05T20:48:23.974Z,100423.28
2023-05-05T20:51:36.373Z,100417.75
2023-05-05T20:54:49.014Z,100415.81
2023-05-05T20:58:01.516Z,100414.91
2023-05-05T21:01:14.220Z,100420.56
2023-05-05T21:04:26.669Z,100410.72
2023-05-05T21:07:39.311Z,100414.78
2023-05-05T21:10:51.685Z,100426.94
2023-05-05T21:14:04.942Z,100422.97
2023-05-05T21:17:17.294Z,100420.78
2023-05-05T21:20:29.911Z,100419.84
2023-05-05T21:23:42.284Z,100415.78
2023-05-05T21:26:56.378Z,100421.84
2023-05-05T21:30:11.015Z,100411.00
2023-05-05T21:33:24.028Z,100403.16
2023-05-05T21:36:37.173Z,100402.13
2023-05-05T21:39:49.840Z,100399.81
2023-05-05T21:43:02.197Z,100399.81
2023-05-05T21:46:17.205Z,100397.00
2023-05-05T21:49:29.657Z,100398.84
2023-05-05T21:52:42.298Z,100391.38
2023-05-05T21:55:55.243Z,100389.41
2023-05-05T21:59:07.841Z,100394.66
2023-05-05T22:02:20.245Z,100388.41
2023-05-05T22:05:32.969Z,100390.63
2023-05-05T22:08:45.317Z,100390.44
2023-05-05T22:11:58.017Z,100387.00
2023-05-05T22:15:10.975Z,100389.06
2023-05-05T22:18:23.902Z,100384.19
2023-05-05T22:21:36.271Z,100387.66
2023-05-05T22:24:49.035Z,100379.81
2023-05-05T22:28:01.455Z,100377.78
2023-05-05T22:31:14.150Z,100379.00
2023-05-05T22:34:26.546Z,100374.97
2023-05-05T22:37:39.173Z,100381.00
2023-05-05T22:40:51.483Z,100378.81
2023-05-05T22:44:04.160Z,100385.81
2023-05-05T22:47:16.627Z,100382.63
2023-05-05T22:50:29.312Z,100383.44
2023-05-05T22:53:41.735Z,100386.06
2023-05-05T22:56:54.411Z,100393.50
2023-05-05T23:00:08.559Z,100389.06
2023-05-05T23:03:21.170Z,100392.91
2023-05-05T23:06:33.548Z,100396.28
2023-05-05T23:09:46.865Z,100396.72
2023-05-05T23:12:59.260Z,100396.72
2023-05-05T23:16:11.913Z,100393.13
2023-05-05T23:19:24.368Z,100400.38
2023-05-05T23:22:37.259Z,100395.31
2023-05-05T23:25:49.680Z,100389.06
2023-05-05T23:29:02.369Z,100391.09
2023-05-05T23:32:14.751Z,100381.44
2023-05-05T23:35:28.040Z,100381.44
2023-05-05T23:38:40.432Z,100379.81
2023-05-05T23:41:53.044Z,100378.59
2023-05-05T23:45:05.808Z,100377.16
2023-05-05T23:48:18.480Z,100369.91
2023-05-05T23:51:31.077Z,100371.75
2023-05-05T23:54:44.722Z,100376.16
2023-05-05T23:57:57.086Z,100373.16
